Time;durP1;ratioP1;P1;durP2;ratioP2;P2;SDS_P1;SDS_P2;PMS_P1;PMS_P2;Temp;Humidity;BMP_temperature;BMP_pressure;BME280_temperature;BME280_humidity;BME280_pressure;Samples;Min_cycle;Max_cycle;Signal;HPM_P1;HPM_P2
2022/07/28 00:01:13;;;;;;;8.63;4.30;;;;;;;16.63;87.87;101058.44;1891049;76;21009;-62
2022/07/28 00:03:42;;;;;;;16.62;4.78;;;;;;;16.60;88.15;101058.16;1890897;76;21451;-62
2022/07/28 00:06:11;;;;;;;7.95;4.25;;;;;;;16.60;88.10;101058.16;1891171;76;21092;-62
2022/07/28 00:08:40;;;;;;;11.08;4.35;;;;;;;16.57;87.98;101056.52;1891150;75;21239;-62
2022/07/28 00:11:09;;;;;;;13.72;4.72;;;;;;;16.54;87.76;101056.72;1891095;76;21543;-61
2022/07/28 00:13:38;;;;;;;7.55;4.17;;;;;;;16.50;87.68;101056.98;1891177;76;21120;-61
2022/07/28 00:16:06;;;;;;;8.03;4.08;;;;;;;16.46;87.58;101050.98;1890972;76;21111;-61
2022/07/28 00:18:35;;;;;;;8.80;4.30;;;;;;;16.46;87.43;101062.95;1891093;76;21114;-61
2022/07/28 00:21:04;;;;;;;8.95;3.83;;;;;;;16.42;87.26;101054.78;1891307;76;21037;-61
2022/07/28 00:23:32;;;;;;;10.72;4.58;;;;;;;16.39;87.12;101054.94;1891029;74;21077;-61
2022/07/28 00:26:01;;;;;;;10.70;4.40;;;;;;;16.37;86.96;101059.50;1891174;76;21036;-63
2022/07/28 00:28:30;;;;;;;9.35;4.22;;;;;;;16.33;86.95;101069.45;1891272;76;21476;-62
2022/07/28 00:30:58;;;;;;;17.50;5.08;;;;;;;16.30;87.48;101066.11;1891116;76;21107;-62
2022/07/28 00:33:27;;;;;;;10.93;4.67;;;;;;;16.29;87.47;101067.92;1891114;76;21044;-61
2022/07/28 00:35:55;;;;;;;9.38;4.53;;;;;;;16.27;87.50;101063.62;1891290;76;21016;-62
2022/07/28 00:38:25;;;;;;;11.90;3.67;;;;;;;16.23;87.47;101066.08;1891152;76;21029;-62
2022/07/28 00:41:12;;;;;;;5.17;3.35;;;;;;;16.18;87.46;101068.53;1891233;76;21037;-61
2022/07/28 00:43:46;;;;;;;11.88;4.53;;;;;;;16.13;87.49;101065.28;1891082;76;21582;-62
2022/07/28 00:46:16;;;;;;;9.20;4.25;;;;;;;16.09;87.51;101065.55;1891260;75;21499;-62
2022/07/28 00:48:47;;;;;;;7.20;4.37;;;;;;;16.04;87.62;101064.47;1891205;76;21045;-62
2022/07/28 00:51:17;;;;;;;10.43;4.78;;;;;;;16.02;87.61;101065.03;1891181;76;21409;-61
2022/07/28 00:53:46;;;;;;;10.20;4.28;;;;;;;15.99;87.60;101071.84;1891056;76;21017;-62
2022/07/28 00:56:15;;;;;;;16.10;4.40;;;;;;;15.98;87.63;101078.11;1891279;76;21033;-62
2022/07/28 00:58:45;;;;;;;7.50;3.87;;;;;;;15.95;87.68;101075.17;1891146;76;21126;-62
2022/07/28 01:01:16;;;;;;;11.95;4.60;;;;;;;15.93;87.69;101074.84;1891396;76;21045;-62
2022/07/28 01:03:53;;;;;;;9.88;4.25;;;;;;;15.92;87.67;101075.81;1891226;76;21013;-62
2022/07/28 01:06:46;;;;;;;14.63;5.22;;;;;;;15.91;87.74;101079.39;1891138;75;21099;-62
2022/07/28 01:09:37;;;;;;;10.68;5.53;;;;;;;15.89;87.79;101078.63;1891150;76;21549;-62
2022/07/28 01:12:31;;;;;;;16.10;5.08;;;;;;;15.88;87.97;101077.78;1891127;76;21545;-62
2022/07/28 01:15:12;;;;;;;7.28;4.28;;;;;;;15.87;87.89;101080.52;1891395;76;21089;-61
2022/07/28 01:18:02;;;;;;;8.65;4.90;;;;;;;15.86;87.81;101085.42;1886071;76;21092;-61
2022/07/28 01:20:39;;;;;;;10.98;4.72;;;;;;;15.85;87.87;101090.37;1891064;75;21092;-62
2022/07/28 01:23:29;;;;;;;9.50;4.78;;;;;;;15.81;87.81;101087.87;1890773;76;21574;-61
2022/07/28 01:26:17;;;;;;;12.10;5.05;;;;;;;15.81;87.75;101094.51;1889272;75;21052;-62
2022/07/28 01:29:03;;;;;;;11.12;4.33;;;;;;;15.79;87.65;101099.53;1891225;76;21464;-62
2022/07/28 01:31:38;;;;;;;15.63;4.90;;;;;;;15.77;87.56;101098.28;1890821;75;21197;-62
2022/07/28 01:34:09;;;;;;;14.25;4.42;;;;;;;15.76;87.47;101095.70;1891178;76;21138;-62
2022/07/28 01:36:44;;;;;;;7.47;3.85;;;;;;;15.74;87.59;101096.27;1891179;76;21114;-62
2022/07/28 01:39:14;;;;;;;7.85;3.83;;;;;;;15.72;87.61;101092.33;1889708;76;21191;-62
2022/07/28 01:41:45;;;;;;;11.60;4.25;;;;;;;15.70;87.69;101096.02;1891106;76;21163;-62
2022/07/28 01:44:19;;;;;;;7.20;3.67;;;;;;;15.72;87.96;101097.64;1891140;76;21459;-61
2022/07/28 01:46:51;;;;;;;16.80;5.00;;;;;;;15.73;88.48;101098.04;1891256;75;21516;-62
2022/07/28 01:49:21;;;;;;;6.45;4.72;;;;;;;15.74;88.88;101100.25;1891234;76;21041;-62
2022/07/28 01:51:52;;;;;;;11.20;4.97;;;;;;;15.75;89.13;101102.83;1891113;76;21013;-61
2022/07/28 01:54:23;;;;;;;13.18;4.92;;;;;;;15.76;89.23;101103.19;1891005;76;21104;-62
2022/07/28 01:56:55;;;;;;;6.40;4.30;;;;;;;15.76;89.15;101108.98;1891241;76;21041;-62
2022/07/28 01:59:25;;;;;;;9.80;4.42;;;;;;;15.73;89.03;101109.98;1891346;75;21554;-61
2022/07/28 02:01:55;;;;;;;11.08;4.35;;;;;;;15.70;88.91;101106.16;1891135;76;21017;-61
2022/07/28 02:04:26;;;;;;;8.35;4.15;;;;;;;15.67;88.84;101111.63;1891206;76;21017;-62
2022/07/28 02:06:56;;;;;;;13.83;4.92;;;;;;;15.64;88.82;101119.78;1891079;74;21108;-63
2022/07/28 02:09:27;;;;;;;6.83;4.55;;;;;;;15.63;88.80;101115.39;1891119;76;21491;-61
2022/07/28 02:11:57;;;;;;;9.45;4.87;;;;;;;15.62;88.80;101116.33;1891146;76;21044;-61
2022/07/28 02:14:27;;;;;;;7.22;4.87;;;;;;;15.61;88.75;101123.91;1891101;76;21119;-62
2022/07/28 02:17:03;;;;;;;14.68;4.60;;;;;;;15.59;88.73;101120.02;1891233;76;21103;-61
2022/07/28 02:19:34;;;;;;;7.70;4.30;;;;;;;15.58;88.76;101129.38;1891093;76;21152;-61
2022/07/28 02:22:06;;;;;;;11.30;4.62;;;;;;;15.56;88.75;101126.80;1891171;75;21048;-61
2022/07/28 02:24:35;;;;;;;11.57;5.15;;;;;;;15.56;88.81;101127.28;1891166;74;21539;-61
2022/07/28 02:27:07;;;;;;;15.25;5.58;;;;;;;15.57;88.66;101132.98;1891185;76;21099;-62
2022/07/28 02:29:44;;;;;;;16.37;6.50;;;;;;;15.62;88.65;101133.58;1889879;76;21041;-62
2022/07/28 02:32:21;;;;;;;15.35;6.60;;;;;;;15.68;88.75;101131.06;1891179;76;21037;-62
2022/07/28 02:34:50;;;;;;;11.22;5.33;;;;;;;15.78;89.04;101131.84;1891157;75;21119;-62
2022/07/28 02:37:20;;;;;;;8.63;4.45;;;;;;;15.93;89.32;101134.59;1891277;76;21537;-61
2022/07/28 02:39:54;;;;;;;8.45;4.60;;;;;;;16.10;89.58;101145.61;1891143;76;21084;-62
2022/07/28 02:42:29;;;;;;;8.13;4.03;;;;;;;16.28;89.79;101142.40;1891058;75;21037;-62
2022/07/28 02:45:01;;;;;;;5.42;3.15;;;;;;;16.43;90.00;101149.97;1891088;76;21475;-62
2022/07/28 02:47:35;;;;;;;7.95;3.15;;;;;;;16.58;90.22;101141.98;1891326;76;21037;-62
2022/07/28 02:50:07;;;;;;;12.15;3.17;;;;;;;16.68;90.25;101148.09;1891217;75;21151;-62
2022/07/28 02:52:37;;;;;;;11.70;4.05;;;;;;;16.71;89.84;101140.80;1891000;76;21045;-63
2022/07/28 02:55:07;;;;;;;13.05;3.83;;;;;;;16.82;89.63;101137.52;1891228;75;21521;-63
2022/07/28 02:57:37;;;;;;;7.70;3.72;;;;;;;16.95;89.62;101141.67;1891222;74;21017;-62
2022/07/28 03:00:07;;;;;;;8.70;3.67;;;;;;;17.13;89.73;101143.68;1891075;76;21045;-63
2022/07/28 03:02:36;;;;;;;15.45;5.08;;;;;;;17.40;89.66;101148.30;1891228;76;21122;-62
2022/07/28 03:05:06;;;;;;;12.65;4.50;;;;;;;17.73;89.08;101147.53;1890968;75;21041;-64
2022/07/28 03:07:35;;;;;;;7.80;3.12;;;;;;;17.94;88.68;101153.36;1891201;76;21025;-62
2022/07/28 03:10:05;;;;;;;8.23;3.20;;;;;;;18.12;87.96;101149.97;1891125;75;21115;-62
2022/07/28 03:12:33;;;;;;;8.30;3.25;;;;;;;18.24;87.60;101160.79;1891186;76;21045;-61
2022/07/28 03:15:02;;;;;;;8.58;3.65;;;;;;;18.34;87.45;101151.26;1891093;76;21150;-60
2022/07/28 03:17:31;;;;;;;8.65;3.15;;;;;;;18.48;87.23;101155.67;1891039;75;21472;-61
2022/07/28 03:19:59;;;;;;;6.92;3.08;;;;;;;18.59;87.15;101150.97;1891070;76;21114;-60
2022/07/28 03:22:28;;;;;;;12.03;2.27;;;;;;;18.65;87.49;101156.77;1891088;76;21476;-60
2022/07/28 03:24:59;;;;;;;10.63;3.02;;;;;;;18.71;87.41;101155.01;1893363;74;21052;-60
2022/07/28 03:27:33;;;;;;;9.40;2.90;;;;;;;18.75;87.04;101158.33;1906420;74;21098;-61
2022/07/28 03:30:08;;;;;;;5.87;2.37;;;;;;;18.79;86.73;101149.16;1906341;74;21079;-61
2022/07/28 03:32:39;;;;;;;10.13;2.67;;;;;;;18.83;86.25;101153.84;1906346;74;21048;-61
2022/07/28 03:35:09;;;;;;;9.45;3.05;;;;;;;18.88;86.08;101152.57;1906324;74;20988;-61
2022/07/28 03:37:40;;;;;;;9.90;2.60;;;;;;;18.97;85.99;101148.92;1906486;74;21085;-61
2022/07/28 03:40:12;;;;;;;9.03;2.52;;;;;;;18.98;85.45;101148.82;1906172;74;21037;-61
2022/07/28 03:42:43;;;;;;;4.97;2.27;;;;;;;19.05;85.46;101147.45;1906194;75;21094;-62
2022/07/28 03:45:12;;;;;;;11.90;2.62;;;;;;;19.18;85.24;101150.59;1906428;74;21071;-61
2022/07/28 03:47:52;;;;;;;12.37;2.77;;;;;;;19.32;84.92;101142.98;1906424;75;21000;-62
2022/07/28 03:50:26;;;;;;;7.10;3.37;;;;;;;19.47;84.83;101144.08;1906553;75;21461;-61
2022/07/28 03:52:57;;;;;;;5.78;2.65;;;;;;;19.63;84.61;101142.52;1906073;74;21502;-61
2022/07/28 03:55:26;;;;;;;7.10;2.50;;;;;;;19.79;84.38;101148.14;1906414;75;21024;-60
2022/07/28 03:57:56;;;;;;;7.78;2.60;;;;;;;19.96;83.91;101146.45;1906428;74;21102;-62
2022/07/28 04:00:25;;;;;;;10.18;3.12;;;;;;;20.10;83.33;101143.26;1906439;75;21537;-61
2022/07/28 04:02:54;;;;;;;6.65;2.90;;;;;;;20.27;82.93;101144.23;1906349;74;21126;-61
2022/07/28 04:05:22;;;;;;;9.83;2.77;;;;;;;20.42;82.06;101143.09;1906289;75;21153;-61
2022/07/28 04:07:51;;;;;;;10.18;2.87;;;;;;;20.55;80.81;101140.84;1906286;74;21591;-62
2022/07/28 04:10:20;;;;;;;13.48;3.62;;;;;;;20.70;79.89;101147.75;1906316;75;21090;-61
2022/07/28 04:12:54;;;;;;;12.65;2.90;;;;;;;20.98;79.26;101145.16;1906308;75;21103;-63
2022/07/28 04:15:25;;;;;;;10.88;3.02;;;;;;;21.25;78.49;101143.13;1906450;74;21056;-61
2022/07/28 04:17:55;;;;;;;9.30;3.00;;;;;;;21.51;77.30;101147.84;1906505;75;21020;-61
2022/07/28 04:20:26;;;;;;;13.80;2.90;;;;;;;21.85;76.83;101145.16;1906271;75;21471;-61
2022/07/28 04:22:56;;;;;;;8.38;2.70;;;;;;;22.24;76.16;101153.11;1906499;74;21024;-61
2022/07/28 04:25:27;;;;;;;9.60;2.65;;;;;;;22.51;74.96;101151.87;1906261;75;21518;-61
2022/07/28 04:27:56;;;;;;;11.43;2.40;;;;;;;22.77;74.63;101152.86;1906480;75;21028;-60
2022/07/28 04:30:26;;;;;;;13.20;3.10;;;;;;;23.08;74.22;101149.30;1906352;75;21094;-60
2022/07/28 04:32:56;;;;;;;9.05;3.10;;;;;;;23.42;73.75;101150.41;1906458;75;21103;-61
2022/07/28 04:35:27;;;;;;;8.00;3.00;;;;;;;23.74;73.21;101148.09;1906329;75;21028;-60
2022/07/28 04:37:57;;;;;;;7.58;3.12;;;;;;;24.06;72.65;101152.47;1906501;75;21078;-61
2022/07/28 04:40:27;;;;;;;10.35;2.90;;;;;;;24.33;71.84;101154.52;1906341;75;21082;-63
2022/07/28 04:42:55;;;;;;;11.20;3.35;;;;;;;24.55;70.94;101154.78;1906458;75;21024;-61
2022/07/28 04:45:24;;;;;;;9.93;2.95;;;;;;;24.75;69.91;101149.37;1906228;75;21040;-61
2022/07/28 04:47:52;;;;;;;8.60;2.87;;;;;;;24.93;69.07;101155.74;1906364;75;21506;-61
2022/07/28 04:50:21;;;;;;;4.50;2.40;;;;;;;25.05;68.46;101153.25;1906364;75;21017;-61
2022/07/28 04:52:53;;;;;;;10.85;3.22;;;;;;;25.25;68.06;101146.52;1905729;74;21047;-61
2022/07/28 04:55:21;;;;;;;7.03;2.65;;;;;;;25.49;67.51;101150.06;1906371;75;21467;-60
2022/07/28 04:57:50;;;;;;;5.72;2.45;;;;;;;25.71;67.22;101144.80;1906465;75;21503;-61
2022/07/28 05:00:20;;;;;;;3.58;2.00;;;;;;;26.05;67.23;101142.87;1906353;75;21090;-61
2022/07/28 05:02:48;;;;;;;5.03;2.65;;;;;;;26.40;66.76;101146.61;1906326;75;21052;-61
2022/07/28 05:05:17;;;;;;;7.03;2.42;;;;;;;26.82;66.48;101145.14;1906380;75;21078;-61
2022/07/28 05:07:46;;;;;;;6.03;2.02;;;;;;;27.16;65.81;101150.14;1906572;75;21095;-61
2022/07/28 05:10:15;;;;;;;3.85;2.10;;;;;;;27.43;64.85;101146.13;1906360;75;21087;-62
2022/07/28 05:12:46;;;;;;;2.77;1.72;;;;;;;27.69;64.54;101142.88;1906471;75;21032;-61
2022/07/28 05:15:14;;;;;;;5.50;1.92;;;;;;;27.95;64.21;101141.99;1906500;75;21086;-61
2022/07/28 05:17:43;;;;;;;8.05;2.80;;;;;;;28.18;63.72;101147.62;1906487;75;21505;-61
2022/07/28 05:20:13;;;;;;;11.60;2.50;;;;;;;28.47;63.21;101145.81;1906520;75;21008;-61
2022/07/28 05:22:56;;;;;;;9.83;2.33;;;;;;;28.74;62.56;101144.38;1906392;75;21509;-61
2022/07/28 05:25:23;;;;;;;3.70;2.20;;;;;;;28.98;61.98;101140.80;1905264;74;21008;-61
2022/07/28 05:27:53;;;;;;;5.45;2.02;;;;;;;29.34;61.50;101138.53;1915596;75;21032;-61
2022/07/28 05:30:22;;;;;;;3.65;1.80;;;;;;;29.68;60.63;101144.70;1919148;75;21048;-61
2022/07/28 05:32:57;;;;;;;4.55;1.92;;;;;;;30.01;59.75;101153.08;1919355;75;21528;-61
2022/07/28 05:35:23;;;;;;;8.30;2.20;;;;;;;30.21;58.37;101148.05;1918784;73;21199;-62
2022/07/28 05:37:51;;;;;;;6.15;2.00;;;;;;;30.47;57.92;101144.66;1919222;75;21101;-61
2022/07/28 05:40:21;;;;;;;4.90;2.15;;;;;;;30.72;57.39;101139.38;1919226;75;21012;-61
2022/07/28 05:42:49;;;;;;;5.47;1.72;;;;;;;31.02;56.86;101138.11;1919140;75;21035;-61
2022/07/28 05:45:18;;;;;;;3.77;2.00;;;;;;;31.30;56.46;101141.08;1919115;75;21073;-61
2022/07/28 05:47:49;;;;;;;5.95;1.82;;;;;;;31.57;55.82;101139.27;1919102;75;21060;-61
2022/07/28 05:50:20;;;;;;;5.20;1.77;;;;;;;31.74;54.63;101134.80;1919141;74;21086;-62
2022/07/28 05:52:50;;;;;;;3.17;1.60;;;;;;;31.78;53.76;101133.91;1919159;75;21603;-61
2022/07/28 05:55:19;;;;;;;2.87;1.87;;;;;;;32.08;52.84;101128.42;1919160;75;21020;-62
2022/07/28 05:57:48;;;;;;;5.72;1.90;;;;;;;32.11;51.92;101132.97;1919148;75;21411;-61
2022/07/28 06:00:19;;;;;;;4.28;1.90;;;;;;;32.04;51.65;101131.18;1919064;75;21059;-62
2022/07/28 06:02:49;;;;;;;2.45;1.60;;;;;;;32.02;51.22;101136.81;1919159;75;21040;-62
2022/07/28 06:05:20;;;;;;;2.75;1.90;;;;;;;32.12;51.21;101141.97;1919283;75;21024;-61
2022/07/28 06:07:50;;;;;;;4.87;2.05;;;;;;;32.09;50.13;101132.81;1919212;75;21020;-61
2022/07/28 06:10:21;;;;;;;5.08;2.10;;;;;;;32.09;50.13;101132.81;1919227;75;21098;-61
2022/07/28 06:12:56;;;;;;;4.28;2.10;;;;;;;32.28;49.93;101138.17;1919283;74;21107;-61
2022/07/28 06:15:27;;;;;;;7.55;2.20;;;;;;;32.69;48.91;101137.02;1919199;75;21437;-61
2022/07/28 06:17:55;;;;;;;9.50;1.95;;;;;;;32.69;48.91;101137.02;1919232;75;21036;-61
2022/07/28 06:20:26;;;;;;;5.00;1.82;;;;;;;32.53;48.60;101141.34;1919127;75;21067;-61
2022/07/28 06:22:55;;;;;;;6.78;2.30;;;;;;;32.66;48.60;101139.29;1919125;75;21105;-61
2022/07/28 06:25:26;;;;;;;6.22;1.95;;;;;;;32.63;47.82;101145.99;1919038;75;21150;-62
2022/07/28 06:27:58;;;;;;;4.05;2.05;;;;;;;32.78;47.78;101147.27;1913445;75;21130;-61
2022/07/28 06:30:28;;;;;;;7.10;1.90;;;;;;;32.96;47.12;101139.98;1906161;74;21537;-61
2022/07/28 06:32:57;;;;;;;7.50;2.00;;;;;;;33.14;47.32;101139.48;1906416;75;21082;-61
2022/07/28 06:35:26;;;;;;;11.30;2.40;;;;;;;33.21;46.60;101140.91;1906452;75;21028;-61
2022/07/28 06:37:54;;;;;;;3.62;1.98;;;;;;;33.43;46.10;101147.97;1906355;75;21490;-62
2022/07/28 06:40:23;;;;;;;5.40;2.27;;;;;;;33.43;45.16;101147.97;1906462;75;21022;-61
2022/07/28 06:42:52;;;;;;;3.47;2.27;;;;;;;33.55;44.45;101145.53;1906514;75;21037;-61
2022/07/28 06:45:21;;;;;;;5.10;2.55;;;;;;;33.61;43.96;101141.14;1906597;75;21125;-61
2022/07/28 06:47:51;;;;;;;5.87;1.60;;;;;;;33.88;43.88;101141.28;1906404;75;21024;-61
2022/07/28 06:50:20;;;;;;;6.70;2.35;;;;;;;34.11;43.59;101141.78;1906308;75;21020;-62
2022/07/28 06:52:49;;;;;;;8.60;2.70;;;;;;;34.34;43.58;101139.23;1906444;75;21447;-61
2022/07/28 06:55:18;;;;;;;5.65;2.77;;;;;;;34.42;43.17;101142.62;1906467;75;21016;-61
2022/07/28 06:57:46;;;;;;;3.75;2.00;;;;;;;34.27;42.30;101147.44;1906430;75;20996;-61
2022/07/28 07:00:15;;;;;;;5.35;2.22;;;;;;;34.16;41.88;101144.75;1906552;75;20993;-61
2022/07/28 07:02:44;;;;;;;4.37;2.02;;;;;;;34.11;41.73;101149.98;1906493;74;21177;-62
2022/07/28 07:05:13;;;;;;;5.95;2.08;;;;;;;34.10;41.48;101148.28;1906441;75;21028;-61
2022/07/28 07:07:42;;;;;;;5.12;2.27;;;;;;;34.27;41.20;101152.03;1906394;75;21057;-61
2022/07/28 07:10:11;;;;;;;7.53;2.25;;;;;;;34.13;40.53;101149.78;1906398;75;21028;-61
2022/07/28 07:12:40;;;;;;;5.83;2.27;;;;;;;34.26;41.09;101147.64;1906474;74;21462;-61
2022/07/28 07:15:10;;;;;;;5.60;2.90;;;;;;;34.42;40.94;101148.62;1893884;75;21094;-63
2022/07/28 07:17:38;;;;;;;10.65;2.70;;;;;;;34.32;39.82;101144.06;1906535;75;21072;-61
2022/07/28 07:20:08;;;;;;;6.80;2.77;;;;;;;34.25;39.54;101134.47;1906435;75;21098;-61
2022/07/28 07:22:42;;;;;;;4.70;2.42;;;;;;;34.37;39.84;101145.66;1906639;74;21059;-61
2022/07/28 07:25:16;;;;;;;8.80;4.65;;;;;;;34.69;40.05;101138.55;1906401;75;21029;-61
2022/07/28 07:27:46;;;;;;;7.65;2.50;;;;;;;35.04;39.94;101141.06;1905357;74;21028;-61
2022/07/28 07:30:15;;;;;;;7.58;2.60;;;;;;;35.30;39.75;101140.23;1891052;76;21460;-62
2022/07/28 07:32:44;;;;;;;6.40;2.87;;;;;;;35.42;39.18;101137.66;1891161;76;21589;-62
2022/07/28 07:35:14;;;;;;;6.50;2.20;;;;;;;35.63;38.84;101135.16;1891098;75;21099;-61
2022/07/28 07:37:43;;;;;;;7.25;2.80;;;;;;;35.87;38.24;101143.20;1891128;76;21033;-61
2022/07/28 07:40:11;;;;;;;7.40;2.77;;;;;;;36.06;37.96;101141.44;1891074;76;21569;-62
2022/07/28 07:42:40;;;;;;;6.08;2.30;;;;;;;36.09;37.09;101140.98;1891064;76;21052;-61
2022/07/28 07:45:09;;;;;;;5.80;2.10;;;;;;;36.13;36.94;101142.75;1891187;76;21033;-61
2022/07/28 07:47:38;;;;;;;4.45;2.42;;;;;;;36.04;37.00;101142.69;1891058;76;21111;-62
2022/07/28 07:50:07;;;;;;;3.60;1.92;;;;;;;36.09;36.82;101137.41;1891083;76;21107;-61
2022/07/28 07:52:36;;;;;;;3.45;2.30;;;;;;;36.11;36.55;101137.48;1891064;76;21009;-62
2022/07/28 07:55:05;;;;;;;2.80;2.10;;;;;;;36.04;35.81;101144.92;1890961;76;21077;-62
2022/07/28 07:57:34;;;;;;;4.22;2.65;;;;;;;36.03;35.24;101152.83;1891168;76;21073;-61
2022/07/28 08:00:04;;;;;;;3.70;2.35;;;;;;;35.87;35.02;101138.25;1891083;75;21001;-62
2022/07/28 08:02:31;;;;;;;6.97;2.40;;;;;;;35.93;34.87;101151.07;1891106;75;21142;-61
2022/07/28 08:05:00;;;;;;;5.08;2.45;;;;;;;35.88;34.87;101147.63;1891190;75;21033;-61
2022/07/28 08:07:29;;;;;;;4.90;2.37;;;;;;;36.08;34.79;101147.53;1890935;76;21094;-62
2022/07/28 08:09:57;;;;;;;2.37;1.80;;;;;;;36.45;34.65;101149.13;1891159;76;21009;-61
2022/07/28 08:12:26;;;;;;;3.92;1.90;;;;;;;36.63;34.00;101144.25;1891060;75;21495;-61
2022/07/28 08:14:55;;;;;;;3.75;1.40;;;;;;;36.64;33.30;101143.17;1891152;76;21060;-62
2022/07/28 08:17:25;;;;;;;2.60;1.37;;;;;;;36.39;32.10;101147.28;1891041;76;21017;-61
2022/07/28 08:19:54;;;;;;;5.08;1.55;;;;;;;36.07;31.70;101147.20;1891171;76;21040;-62
2022/07/28 08:22:23;;;;;;;2.50;1.67;;;;;;;35.94;31.56;101150.03;1891076;76;21107;-61
2022/07/28 08:24:52;;;;;;;2.75;1.65;;;;;;;35.97;31.34;101154.22;1891074;76;21534;-61
2022/07/28 08:27:20;;;;;;;2.17;1.27;;;;;;;36.04;31.71;101151.78;1891023;76;21115;-61
2022/07/28 08:29:49;;;;;;;3.35;1.72;;;;;;;36.33;31.85;101137.17;1899129;74;21138;-61
2022/07/28 08:32:18;;;;;;;3.75;1.50;;;;;;;36.65;32.02;101152.23;1893674;74;21142;-61
2022/07/28 08:34:46;;;;;;;2.22;1.50;;;;;;;36.65;31.29;101142.12;1891020;76;21069;-62
2022/07/28 08:37:15;;;;;;;2.62;1.40;;;;;;;36.77;31.41;101139.51;1891028;76;21503;-61
2022/07/28 08:39:44;;;;;;;2.70;1.47;;;;;;;36.83;31.17;101138.59;1891123;76;21048;-61
2022/07/28 08:42:15;;;;;;;3.20;1.40;;;;;;;37.11;31.14;101142.77;1891290;76;21045;-61
2022/07/28 08:44:45;;;;;;;;;;;;;;;37.17;30.65;101135.59;1894010;75;21194;-61
2022/07/28 08:47:16;;;;;;;4.08;1.80;;;;;;;37.11;31.17;101134.53;1891108;76;20127;-61
2022/07/28 08:49:46;;;;;;;5.00;1.77;;;;;;;37.17;31.10;101133.68;1891115;76;21080;-61
2022/07/28 08:52:17;;;;;;;6.22;2.15;;;;;;;37.19;30.88;101134.29;1891247;75;21099;-61
2022/07/28 08:54:47;;;;;;;5.53;2.05;;;;;;;37.19;30.78;101132.91;1891163;76;21095;-61
2022/07/28 08:57:37;;;;;;;3.42;1.70;;;;;;;37.41;30.99;101129.19;1891184;76;21045;-61
2022/07/28 09:00:08;;;;;;;5.97;2.10;;;;;;;37.52;30.67;101130.33;1889928;76;21103;-62
2022/07/28 09:02:40;;;;;;;2.17;1.40;;;;;;;37.46;30.25;101129.34;1891272;76;21037;-61
2022/07/28 09:05:10;;;;;;;3.27;1.75;;;;;;;37.18;30.07;101129.84;1891196;76;21553;-62
2022/07/28 09:07:41;;;;;;;3.72;1.75;;;;;;;36.88;30.10;101133.28;1891179;76;21483;-62
2022/07/28 09:10:11;;;;;;;4.37;2.17;;;;;;;36.90;30.04;101131.15;1891241;75;21038;-62
2022/07/28 09:12:40;;;;;;;4.00;1.57;;;;;;;36.85;30.13;101136.50;1891157;76;21487;-61
2022/07/28 09:15:10;;;;;;;2.70;2.10;;;;;;;36.80;30.18;101136.33;1891161;76;21037;-62
2022/07/28 09:17:40;;;;;;;5.83;2.00;;;;;;;36.75;30.46;101135.32;1891150;76;21069;-62
2022/07/28 09:20:10;;;;;;;7.35;1.62;;;;;;;36.76;30.80;101137.84;1891148;74;21041;-62
2022/07/28 09:23:00;;;;;;;2.05;1.42;;;;;;;36.89;30.80;101136.89;1891102;76;21103;-61
2022/07/28 09:25:30;;;;;;;2.60;1.77;;;;;;;36.75;30.48;101143.55;1891265;76;21529;-62
2022/07/28 09:28:14;;;;;;;5.22;2.20;;;;;;;36.93;30.71;101137.25;1891136;76;21025;-62
2022/07/28 09:30:45;;;;;;;2.08;1.40;;;;;;;37.03;30.78;101135.67;1891104;76;21114;-62
2022/07/28 09:33:20;;;;;;;2.35;1.62;;;;;;;36.84;30.23;101132.60;1891354;74;21174;-62
2022/07/28 09:35:52;;;;;;;1.90;1.50;;;;;;;36.86;30.82;101140.08;1891135;76;21037;-62
2022/07/28 09:38:22;;;;;;;2.30;1.60;;;;;;;36.75;31.63;101136.15;1891333;76;21040;-62
2022/07/28 09:41:08;;;;;;;1.87;1.27;;;;;;;36.99;31.81;101140.48;1891171;76;21099;-61
2022/07/28 09:43:39;;;;;;;3.83;1.55;;;;;;;37.15;31.60;101140.45;1891044;76;21056;-61
2022/07/28 09:46:12;;;;;;;3.12;1.37;;;;;;;37.36;31.49;101135.89;1891232;76;21029;-61
2022/07/28 09:48:50;;;;;;;2.33;1.40;;;;;;;37.47;30.75;101132.92;1891219;76;21065;-61
2022/07/28 09:51:25;;;;;;;3.52;1.52;;;;;;;37.28;30.31;101132.92;1889606;75;21127;-61
2022/07/28 09:53:55;;;;;;;1.87;1.45;;;;;;;37.23;30.68;101132.76;1891021;75;21103;-61
2022/07/28 09:56:29;;;;;;;3.37;1.32;;;;;;;37.33;30.72;101132.77;1889807;76;21495;-61
2022/07/28 09:58:59;;;;;;;5.12;1.30;;;;;;;37.11;30.42;101137.28;1891145;75;21530;-62
2022/07/28 10:01:30;;;;;;;3.37;1.80;;;;;;;37.02;30.63;101141.38;1891382;75;21111;-62
2022/07/28 10:04:00;;;;;;;3.30;1.82;;;;;;;36.83;30.71;101139.97;1891133;76;21040;-61
2022/07/28 10:06:31;;;;;;;2.00;1.50;;;;;;;36.78;30.75;101137.09;1891048;76;21468;-61
2022/07/28 10:09:02;;;;;;;5.28;1.60;;;;;;;36.51;31.40;101129.03;1891259;75;21107;-61
2022/07/28 10:11:31;;;;;;;1.57;1.22;;;;;;;36.41;31.69;101137.44;1891515;76;21009;-61
2022/07/28 10:14:02;;;;;;;3.15;1.50;;;;;;;36.36;31.26;101135.37;1891158;76;21009;-61
2022/07/28 10:16:33;;;;;;;4.03;1.55;;;;;;;36.35;30.99;101136.96;1891110;76;21107;-61
2022/07/28 10:19:04;;;;;;;8.28;2.52;;;;;;;36.17;30.64;101130.81;1891033;76;21076;-61
2022/07/28 10:21:37;;;;;;;2.57;1.53;;;;;;;36.03;31.05;101135.02;1891589;76;21158;-61
2022/07/28 10:24:08;;;;;;;4.58;2.70;;;;;;;35.75;30.82;101131.27;1891154;75;21877;-62
2022/07/28 10:26:39;;;;;;;2.80;1.70;;;;;;;35.42;30.85;101146.41;1891145;74;21530;-61
2022/07/28 10:29:09;;;;;;;3.15;1.00;;;;;;;35.45;31.22;101139.98;1890907;75;21495;-62
2022/07/28 10:31:51;;;;;;;3.53;1.40;;;;;;;35.44;31.14;101136.09;1891428;75;21186;-61
2022/07/28 10:34:25;;;;;;;7.33;3.30;;;;;;;35.41;31.32;101133.77;1891141;75;21729;-61
2022/07/28 10:36:56;;;;;;;1.10;0.90;;;;;;;35.38;31.24;101139.98;1889686;76;21103;-61
2022/07/28 10:39:28;;;;;;;3.30;1.30;;;;;;;35.16;30.48;101138.00;1891136;76;21037;-61
2022/07/28 10:41:57;;;;;;;2.67;1.07;;;;;;;34.88;30.49;101134.16;1891041;74;21155;-61
2022/07/28 10:44:27;;;;;;;5.10;1.62;;;;;;;34.56;29.88;101129.78;1891347;76;21530;-61
2022/07/28 10:46:56;;;;;;;1.40;0.90;;;;;;;34.40;30.42;101135.16;1891142;76;21146;-61
2022/07/28 10:49:26;;;;;;;2.90;1.35;;;;;;;34.29;30.39;101137.13;1891209;76;21045;-61
2022/07/28 10:51:56;;;;;;;1.37;1.10;;;;;;;33.95;29.82;101132.59;1891139;76;21010;-61
2022/07/28 10:54:28;;;;;;;3.52;1.40;;;;;;;33.95;29.82;101132.59;1891058;76;21544;-61
2022/07/28 10:56:59;;;;;;;1.92;1.25;;;;;;;33.75;30.61;101129.25;1891328;76;21107;-61
2022/07/28 10:59:43;;;;;;;4.17;1.83;;;;;;;33.75;30.61;101129.25;1891516;75;21463;-61
2022/07/28 11:02:54;;;;;;;3.25;1.62;;;;;;;33.71;30.88;101123.88;1891123;75;21480;-61
2022/07/28 11:05:35;;;;;;;1.75;1.10;;;;;;;33.48;31.03;101121.45;1891238;76;21538;-61
2022/07/28 11:08:16;;;;;;;4.67;1.25;;;;;;;33.14;31.44;101124.48;1891130;76;21118;-61
2022/07/28 11:10:50;;;;;;;2.47;1.17;;;;;;;33.00;32.11;101124.89;1891111;76;21041;-61
2022/07/28 11:13:37;;;;;;;2.62;1.40;;;;;;;32.78;32.04;101127.35;1891061;76;21076;-61
2022/07/28 11:16:18;;;;;;;3.33;1.30;;;;;;;32.50;32.08;101130.85;1891094;76;21053;-61
2022/07/28 11:19:07;;;;;;;3.33;1.20;;;;;;;32.39;32.22;101128.62;1891106;76;21100;-61
2022/07/28 11:21:36;;;;;;;4.50;1.10;;;;;;;32.25;32.72;101127.12;1891049;75;21119;-61
2022/07/28 11:24:05;;;;;;;1.90;1.00;;;;;;;32.13;32.92;101131.42;1891094;76;21069;-61
2022/07/28 11:26:35;;;;;;;10.08;2.15;;;;;;;32.01;33.13;101123.38;1891101;76;21041;-61
2022/07/28 11:29:07;;;;;;;1.50;1.20;;;;;;;31.93;33.37;101124.34;1891075;76;21099;-61
2022/07/28 11:31:47;;;;;;;1.60;1.17;;;;;;;31.92;33.58;101125.37;1891346;76;21037;-61
2022/07/28 11:34:19;;;;;;;1.92;1.10;;;;;;;31.77;33.43;101132.20;1891175;74;21073;-61
2022/07/28 11:37:09;;;;;;;2.83;1.30;;;;;;;31.59;33.98;101123.06;1891098;76;21106;-61
2022/07/28 11:39:39;;;;;;;1.80;1.05;;;;;;;31.54;34.09;101123.65;1891109;76;21011;-61
2022/07/28 11:42:29;;;;;;;2.90;1.20;;;;;;;31.44;34.05;101114.88;1891142;76;21033;-62
2022/07/28 11:45:00;;;;;;;3.25;1.30;;;;;;;31.33;33.99;101116.72;1891192;76;21033;-61